createdAt,value
2023-04-06T00:01:15.523Z,99003.63
2023-04-06T00:03:42.564Z,99002.75
2023-04-06T00:06:10.477Z,99009.88
2023-04-06T00:08:37.300Z,99008.50
2023-04-06T00:11:04.241Z,98991.38
2023-04-06T00:13:31.168Z,99000.88
2023-04-06T00:15:58.266Z,98998.03
2023-04-06T00:18:25.217Z,98996.00
2023-04-06T00:20:52.217Z,98992.91
2023-04-06T00:23:19.293Z,98990.81
2023-04-06T00:25:46.209Z,98995.09
2023-04-06T00:28:13.027Z,98988.19
2023-04-06T00:30:41.734Z,98992.44
2023-04-06T00:33:08.640Z,98985.44
2023-04-06T00:35:36.094Z,98983.50
2023-04-06T00:38:03.003Z,98987.97
2023-04-06T00:40:29.920Z,98979.78
2023-04-06T00:42:56.845Z,98972.63
2023-04-06T00:45:23.763Z,98970.34
2023-04-06T00:47:50.765Z,98969.38
2023-04-06T00:50:18.453Z,98968.00
2023-04-06T00:52:45.473Z,98970.81
2023-04-06T00:55:12.450Z,98971.56
2023-04-06T00:57:39.558Z,98966.31
2023-04-06T01:00:07.894Z,98959.25
2023-04-06T01:02:35.032Z,98957.53
2023-04-06T01:05:02.906Z,98967.66
2023-04-06T01:07:32.412Z,98959.28
2023-04-06T01:09:59.520Z,98963.97
2023-04-06T01:12:26.763Z,98961.16
2023-04-06T01:14:53.697Z,98957.25
2023-04-06T01:17:20.869Z,98954.19
2023-04-06T01:19:50.290Z,98956.19
2023-04-06T01:22:18.083Z,98962.28
2023-04-06T01:24:45.619Z,98968.53
2023-04-06T01:27:13.168Z,98954.00
2023-04-06T01:29:43.987Z,98956.78
2023-04-06T01:32:10.982Z,98948.00
2023-04-06T01:34:37.817Z,98957.00
2023-04-06T01:37:04.783Z,98953.00
2023-04-06T01:39:31.722Z,98945.44
2023-04-06T01:41:58.587Z,98944.97
2023-04-06T01:44:26.061Z,98943.53
2023-04-06T01:46:53.026Z,98935.09
2023-04-06T01:49:19.962Z,98944.34
2023-04-06T01:51:46.775Z,98936.72
2023-04-06T01:54:13.739Z,98946.28
2023-04-06T01:56:41.563Z,98934.59
2023-04-06T02:01:49.473Z,98939.13
2023-04-06T02:04:16.537Z,98936.72
2023-04-06T02:06:43.591Z,98941.31
2023-04-06T02:09:10.731Z,98942.78
2023-04-06T02:11:37.514Z,98945.94
2023-04-06T02:14:04.392Z,98947.41
2023-04-06T02:16:31.594Z,98942.19
2023-04-06T02:18:58.738Z,98936.38
2023-04-06T02:21:25.583Z,98944.22
2023-04-06T02:23:52.507Z,98944.59
2023-04-06T02:26:19.350Z,98950.44
2023-04-06T02:28:46.295Z,98947.06
2023-04-06T02:31:13.282Z,98948.19
2023-04-06T02:33:40.223Z,98947.72
2023-04-06T02:36:07.326Z,98947.84
2023-04-06T02:38:34.165Z,98944.59
2023-04-06T02:41:01.136Z,98944.97
2023-04-06T02:43:28.007Z,98942.34
2023-04-06T02:45:54.925Z,98936.41
2023-04-06T02:48:21.885Z,98932.31
2023-04-06T02:50:48.737Z,98931.13
2023-04-06T02:53:15.577Z,98932.78
2023-04-06T02:55:42.427Z,98932.84
2023-04-06T02:58:09.299Z,98931.59
2023-04-06T03:00:37.037Z,98925.78
2023-04-06T03:03:04.189Z,98926.44
2023-04-06T03:05:31.615Z,98928.53
2023-04-06T03:07:58.465Z,98925.88
2023-04-06T03:10:25.597Z,98918.91
2023-04-06T03:12:52.491Z,98927.03
2023-04-06T03:15:19.524Z,98927.50
2023-04-06T03:17:46.456Z,98925.63
2023-04-06T03:20:13.678Z,98920.31
2023-04-06T03:22:40.461Z,98918.03
2023-04-06T03:25:07.842Z,98923.00
2023-04-06T03:27:34.706Z,98913.34
2023-04-06T03:30:01.589Z,98920.22
2023-04-06T03:32:28.491Z,98924.72
2023-04-06T03:34:55.507Z,98926.44
2023-04-06T03:37:22.396Z,98928.38
2023-04-06T03:39:49.218Z,98932.22
2023-04-06T03:42:16.151Z,98927.59
2023-04-06T03:44:43.020Z,98929.50
2023-04-06T03:47:09.840Z,98927.41
2023-04-06T03:49:38.045Z,98936.69
2023-04-06T03:52:06.502Z,98934.94
2023-04-06T03:54:33.245Z,98938.50
2023-04-06T03:57:01.191Z,98934.56
2023-04-06T03:59:28.267Z,98939.09
2023-04-06T04:01:55.223Z,98938.28
2023-04-06T04:04:23.057Z,98941.34
2023-04-06T04:06:50.245Z,98935.78
2023-04-06T04:09:17.143Z,98950.69
2023-04-06T04:11:44.054Z,98937.56
2023-04-06T04:14:10.936Z,98941.50
2023-04-06T04:16:37.891Z,98941.03
2023-04-06T04:19:04.787Z,98948.09
2023-04-06T04:21:33.098Z,98949.47
2023-04-06T04:24:00.039Z,98949.00
2023-04-06T04:26:26.898Z,98954.13
2023-04-06T04:28:53.726Z,98954.03
2023-04-06T04:31:22.841Z,98948.22
2023-04-06T04:33:51.097Z,98940.50
2023-04-06T04:36:17.927Z,98951.56
2023-04-06T04:38:44.849Z,98946.59
2023-04-06T04:41:11.800Z,98954.13
2023-04-06T04:43:39.936Z,98948.22
2023-04-06T04:46:07.837Z,98951.16
2023-04-06T04:48:34.823Z,98947.19
2023-04-06T04:51:02.257Z,98956.34
2023-04-06T04:53:29.087Z,98959.19
2023-04-06T04:55:56.044Z,98955.25
2023-04-06T04:58:22.957Z,98965.31
2023-04-06T05:00:49.866Z,98962.75
2023-04-06T05:03:27.559Z,98961.28
2023-04-06T05:05:54.444Z,98962.44
2023-04-06T05:08:21.505Z,98962.66
2023-04-06T05:10:49.410Z,98964.72
2023-04-06T05:13:16.363Z,98963.69
2023-04-06T05:15:43.494Z,98967.03
2023-04-06T05:18:11.058Z,98965.69
2023-04-06T05:20:41.412Z,98971.59
2023-04-06T05:23:08.311Z,98969.41
2023-04-06T05:25:35.508Z,98974.53
2023-04-06T05:28:02.523Z,98967.19
2023-04-06T05:30:29.477Z,98968.69
2023-04-06T05:32:56.407Z,98957.41
2023-04-06T05:35:23.488Z,98974.84
2023-04-06T05:37:50.367Z,98962.72
2023-04-06T05:40:17.388Z,98975.16
2023-04-06T05:42:44.516Z,98981.56
2023-04-06T05:45:17.559Z,98975.72
2023-04-06T05:47:45.530Z,98981.44
2023-04-06T05:50:14.810Z,98974.47
2023-04-06T05:52:44.313Z,98982.59
2023-04-06T05:55:12.572Z,98985.38
2023-04-06T05:57:39.354Z,98980.13
2023-04-06T06:00:10.706Z,98983.84
2023-04-06T06:02:40.949Z,98984.19
2023-04-06T06:05:08.573Z,98982.66
2023-04-06T06:07:35.681Z,98989.78
2023-04-06T06:10:02.847Z,98992.09
2023-04-06T06:12:29.751Z,98987.69
2023-04-06T06:14:56.827Z,98990.31
2023-04-06T06:17:23.850Z,98989.38
2023-04-06T06:19:51.225Z,98987.38
2023-04-06T06:22:18.187Z,98987.94
2023-04-06T06:24:45.224Z,98993.31
2023-04-06T06:27:12.205Z,98992.00
2023-04-06T06:29:39.099Z,98996.28
2023-04-06T06:32:06.254Z,98996.38
2023-04-06T06:34:33.210Z,98992.53
2023-04-06T06:37:00.752Z,98998.28
2023-04-06T06:39:27.991Z,98997.59
2023-04-06T06:41:57.602Z,98996.84
2023-04-06T06:44:24.502Z,98995.00
2023-04-06T06:46:51.465Z,98997.03
2023-04-06T06:49:18.403Z,98997.44
2023-04-06T06:51:46.664Z,99003.16
2023-04-06T06:54:14.050Z,98996.91
2023-04-06T06:56:40.954Z,99000.22
2023-04-06T06:59:07.904Z,98995.84
2023-04-06T07:01:35.731Z,99003.22
2023-04-06T07:04:03.138Z,98992.00
2023-04-06T07:06:30.282Z,98992.09
2023-04-06T07:08:57.245Z,98986.88
2023-04-06T07:11:24.171Z,98994.50
2023-04-06T07:13:51.177Z,98987.72
2023-04-06T07:16:18.240Z,98988.97
2023-04-06T07:18:45.175Z,98988.03
2023-04-06T07:21:12.172Z,98991.91
2023-04-06T07:23:39.373Z,98987.16
2023-04-06T07:26:06.460Z,98983.56
2023-04-06T07:28:33.594Z,98989.09
2023-04-06T07:31:01.164Z,98987.28
2023-04-06T07:33:30.876Z,98986.09
2023-04-06T07:35:59.327Z,98983.75
2023-04-06T07:38:26.334Z,98983.28
2023-04-06T07:40:53.235Z,98981.50
2023-04-06T07:43:21.413Z,98982.16
2023-04-06T07:45:48.629Z,98982.88
2023-04-06T07:48:15.924Z,98986.81
2023-04-06T07:50:42.901Z,98983.41
2023-04-06T07:53:10.633Z,98992.38
2023-04-06T07:55:38.258Z,98980.59
2023-04-06T07:58:05.580Z,98982.28
2023-04-06T08:00:32.970Z,98978.03
2023-04-06T08:03:02.415Z,98982.94
2023-04-06T08:05:29.516Z,98974.56
2023-04-06T08:07:56.593Z,98980.44
2023-04-06T08:10:23.490Z,98989.84
2023-04-06T08:12:50.630Z,98978.19
2023-04-06T08:15:19.112Z,98972.97
2023-04-06T08:17:46.108Z,98976.16
2023-04-06T08:20:13.320Z,98965.78
2023-04-06T08:22:40.422Z,98971.31
2023-04-06T08:25:07.558Z,98969.53
2023-04-06T08:27:34.476Z,98956.63
2023-04-06T08:30:01.655Z,98965.59
2023-04-06T08:32:28.601Z,98962.34
2023-04-06T08:34:56.454Z,98969.94
2023-04-06T08:37:24.431Z,98958.78
2023-04-06T08:39:51.617Z,98962.41
2023-04-06T08:42:27.345Z,98963.22
2023-04-06T08:44:55.795Z,98957.28
2023-04-06T08:47:24.820Z,98956.94
2023-04-06T08:49:54.292Z,98956.59
2023-04-06T08:52:21.825Z,98953.50
2023-04-06T08:54:49.016Z,98965.69
2023-04-06T08:57:17.798Z,98959.34
2023-04-06T08:59:46.273Z,98958.13
2023-04-06T09:02:19.947Z,98956.50
2023-04-06T09:04:53.999Z,98956.16
2023-04-06T09:07:22.348Z,98952.28
2023-04-06T09:09:52.886Z,98957.28
2023-04-06T09:12:28.678Z,98947.97
2023-04-06T09:14:57.179Z,98956.38
2023-04-06T09:17:30.993Z,98949.41
2023-04-06T09:19:58.282Z,98947.81
2023-04-06T09:22:26.619Z,98948.53
2023-04-06T09:24:55.385Z,98942.03
2023-04-06T09:27:34.095Z,98938.94
2023-04-06T09:30:10.959Z,98940.66
2023-04-06T09:32:53.161Z,98938.25
2023-04-06T09:35:22.596Z,98934.84
2023-04-06T09:37:53.038Z,98935.53
2023-04-06T09:40:20.667Z,98935.13
2023-04-06T09:42:51.341Z,98938.34
2023-04-06T09:45:18.524Z,98940.13
2023-04-06T09:47:46.974Z,98938.81
2023-04-06T09:50:17.380Z,98933.38
2023-04-06T09:52:51.480Z,98940.59
2023-04-06T09:55:41.606Z,98931.13
2023-04-06T09:58:19.271Z,98936.59
2023-04-06T10:01:02.417Z,98939.63
2023-04-06T10:03:56.081Z,98928.72
2023-04-06T10:06:28.288Z,98928.41
2023-04-06T10:08:57.628Z,98929.66
2023-04-06T10:11:24.911Z,98936.34
2023-04-06T10:13:51.947Z,98924.75
2023-04-06T10:16:19.481Z,98925.91
2023-04-06T10:18:53.687Z,98928.75
2023-04-06T10:21:26.532Z,98929.13
2023-04-06T10:24:00.768Z,98917.75
2023-04-06T10:26:27.976Z,98921.78
2023-04-06T10:28:56.247Z,98921.31
2023-04-06T10:31:28.438Z,98920.56
2023-04-06T10:34:01.967Z,98923.53
2023-04-06T10:36:35.938Z,98922.09
2023-04-06T10:39:07.478Z,98916.91
2023-04-06T10:41:47.102Z,98924.25
2023-04-06T10:44:25.570Z,98915.97
2023-04-06T10:47:04.124Z,98915.53
2023-04-06T10:49:31.115Z,98911.50
2023-04-06T10:51:58.636Z,98902.19
2023-04-06T10:54:27.877Z,98899.69
2023-04-06T10:56:54.774Z,98904.03
2023-04-06T10:59:23.228Z,98903.25
2023-04-06T11:01:50.655Z,98904.22
2023-04-06T11:04:19.632Z,98901.94
2023-04-06T11:06:51.245Z,98899.66
2023-04-06T11:09:26.975Z,98901.00
2023-04-06T11:11:55.328Z,98898.81
2023-04-06T11:14:22.411Z,98895.97
2023-04-06T11:16:50.933Z,98897.75
2023-04-06T11:19:19.063Z,98895.81
2023-04-06T11:21:49.208Z,98887.06
2023-04-06T11:24:22.576Z,98877.22
2023-04-06T11:26:52.737Z,98877.75
2023-04-06T11:29:22.767Z,98872.41
2023-04-06T11:31:59.572Z,98872.03
2023-04-06T11:34:28.855Z,98876.63
2023-04-06T11:37:02.982Z,98875.59
2023-04-06T11:39:31.165Z,98868.41
2023-04-06T11:42:05.001Z,98866.81
2023-04-06T11:44:46.768Z,98867.31
2023-04-06T11:47:14.046Z,98869.84
2023-04-06T11:49:43.809Z,98871.44
2023-04-06T11:52:25.436Z,98867.94
2023-04-06T11:54:55.208Z,98868.81
2023-04-06T11:57:26.354Z,98873.38
2023-04-06T11:59:53.896Z,98853.69
2023-04-06T12:02:21.061Z,98849.38
2023-04-06T12:04:48.467Z,98850.22
2023-04-06T12:07:15.763Z,98853.38
2023-04-06T12:09:44.202Z,98855.69
2023-04-06T12:12:11.427Z,98852.75
2023-04-06T12:14:38.370Z,98852.16
2023-04-06T12:17:05.381Z,98850.97
2023-04-06T12:19:32.658Z,98851.97
2023-04-06T12:21:59.883Z,98843.00
2023-04-06T12:24:27.602Z,98841.69
2023-04-06T12:27:06.474Z,98842.19
2023-04-06T12:29:36.789Z,98840.47
2023-04-06T12:32:03.703Z,98830.56
2023-04-06T12:34:31.089Z,98835.41
2023-04-06T12:36:58.110Z,98836.81
2023-04-06T12:39:25.283Z,98839.66
2023-04-06T12:41:52.164Z,98835.06
2023-04-06T12:44:19.058Z,98829.19
2023-04-06T12:46:46.331Z,98834.59
2023-04-06T12:49:15.591Z,98836.88
2023-04-06T12:51:42.421Z,98831.66
2023-04-06T12:54:09.627Z,98828.00
2023-04-06T12:56:37.421Z,98827.25
2023-04-06T12:59:04.457Z,98829.56
2023-04-06T13:01:32.761Z,98824.19
2023-04-06T13:04:00.343Z,98826.97
2023-04-06T13:06:30.195Z,98826.78
2023-04-06T13:08:57.324Z,98819.44
2023-04-06T13:11:28.248Z,98809.91
2023-04-06T13:13:55.674Z,98819.81
2023-04-06T13:16:22.823Z,98827.59
2023-04-06T13:18:50.044Z,98819.53
2023-04-06T13:21:17.704Z,98824.06
2023-04-06T13:23:45.376Z,98819.53
2023-04-06T13:26:14.284Z,98821.34
2023-04-06T13:28:41.725Z,98817.03
2023-04-06T13:31:09.368Z,98815.53
2023-04-06T13:33:36.629Z,98820.34
2023-04-06T13:36:04.399Z,98823.00
2023-04-06T13:38:31.572Z,98811.22
2023-04-06T13:40:58.748Z,98813.75
2023-04-06T13:43:27.823Z,98807.38
2023-04-06T13:45:58.872Z,98808.53
2023-04-06T13:48:26.919Z,98811.75
2023-04-06T13:50:54.312Z,98813.78
2023-04-06T13:53:21.265Z,98814.56
2023-04-06T13:55:57.402Z,98810.44
2023-04-06T13:58:24.594Z,98806.00
2023-04-06T14:00:52.108Z,98806.84
2023-04-06T14:03:20.562Z,98811.56
2023-04-06T14:05:47.596Z,98806.97
2023-04-06T14:08:14.424Z,98816.44
2023-04-06T14:10:43.184Z,98811.00
2023-04-06T14:13:10.454Z,98811.22
2023-04-06T14:15:38.235Z,98805.06
2023-04-06T14:18:05.147Z,98794.28
2023-04-06T14:20:33.540Z,98802.72
2023-04-06T14:23:04.714Z,98807.66
2023-04-06T14:25:32.979Z,98807.13
2023-04-06T14:27:59.890Z,98806.53
2023-04-06T14:30:26.853Z,98805.50
2023-04-06T14:32:54.042Z,98798.75
2023-04-06T14:35:21.141Z,98805.31
2023-04-06T14:37:48.089Z,98797.94
2023-04-06T14:40:15.209Z,98790.78
2023-04-06T14:42:42.131Z,98801.03
2023-04-06T14:45:09.316Z,98803.78
2023-04-06T14:47:36.278Z,98798.84
2023-04-06T14:50:03.340Z,98792.09
2023-04-06T14:52:32.554Z,98793.19
2023-04-06T14:54:59.925Z,98793.66
2023-04-06T14:57:26.894Z,98789.38
2023-04-06T14:59:56.794Z,98787.03
2023-04-06T15:02:24.032Z,98795.00
2023-04-06T15:04:53.178Z,98791.22
2023-04-06T15:07:20.850Z,98783.38
2023-04-06T15:09:47.716Z,98787.25
2023-04-06T15:12:14.586Z,98789.78
2023-04-06T15:14:41.713Z,98794.00
2023-04-06T15:17:08.501Z,98793.31
2023-04-06T15:19:35.533Z,98796.09
2023-04-06T15:22:02.538Z,98787.09
2023-04-06T15:24:29.386Z,98795.53
2023-04-06T15:26:56.743Z,98798.59
2023-04-06T15:29:23.701Z,98785.41
2023-04-06T15:31:50.898Z,98786.06
2023-04-06T15:34:17.880Z,98801.38
2023-04-06T15:36:46.616Z,98794.50
2023-04-06T15:39:14.488Z,98798.69
2023-04-06T15:41:41.413Z,98800.00
2023-04-06T15:44:08.345Z,98793.88
2023-04-06T15:46:35.392Z,98803.03
2023-04-06T15:49:02.314Z,98799.19
2023-04-06T15:51:30.097Z,98799.59
2023-04-06T15:53:58.892Z,98798.19
2023-04-06T15:56:26.440Z,98802.53
2023-04-06T15:58:53.311Z,98799.47
2023-04-06T16:01:20.639Z,98795.75
2023-04-06T16:03:48.106Z,98793.84
2023-04-06T16:06:15.365Z,98797.88
2023-04-06T16:08:42.206Z,98798.06
2023-04-06T16:11:41.322Z,98795.66
2023-04-06T16:14:24.757Z,98800.31
2023-04-06T16:16:52.941Z,98800.66
2023-04-06T16:19:19.756Z,98797.31
2023-04-06T16:21:47.453Z,98798.44
2023-04-06T16:24:14.266Z,98790.75
2023-04-06T16:26:42.636Z,98792.84
2023-04-06T16:29:10.385Z,98800.84
2023-04-06T16:31:37.415Z,98794.59
2023-04-06T16:34:04.386Z,98794.28
2023-04-06T16:36:34.564Z,98803.44
2023-04-06T16:39:02.314Z,98797.97
2023-04-06T16:41:30.306Z,98801.66
2023-04-06T16:43:58.127Z,98797.66
2023-04-06T16:46:38.772Z,98797.00
2023-04-06T16:49:07.065Z,98799.25
2023-04-06T16:51:35.080Z,98789.47
2023-04-06T16:54:02.657Z,98797.59
2023-04-06T16:56:29.864Z,98802.41
2023-04-06T16:58:56.812Z,98795.00
2023-04-06T17:01:29.251Z,98797.78
2023-04-06T17:03:56.696Z,98792.94
2023-04-06T17:06:26.971Z,98793.41
2023-04-06T17:08:54.044Z,98801.91
2023-04-06T17:11:25.657Z,98798.19
2023-04-06T17:13:56.000Z,98793.53
2023-04-06T17:16:22.954Z,98797.38
2023-04-06T17:18:49.922Z,98796.88
2023-04-06T17:21:20.554Z,98798.00
2023-04-06T17:23:48.409Z,98800.25
2023-04-06T17:26:15.876Z,98803.09
2023-04-06T17:28:42.901Z,98807.91
2023-04-06T17:31:12.019Z,98798.00
2023-04-06T17:33:40.359Z,98797.50
2023-04-06T17:36:10.858Z,98794.94
2023-04-06T17:38:43.205Z,98790.22
2023-04-06T17:41:12.593Z,98797.41
2023-04-06T17:43:40.189Z,98806.03
2023-04-06T17:46:07.176Z,98797.53
2023-04-06T17:48:34.186Z,98808.69
2023-04-06T17:51:01.282Z,98808.22
2023-04-06T17:53:32.202Z,98810.38
2023-04-06T17:56:03.904Z,98803.16
2023-04-06T17:58:31.114Z,98812.09
2023-04-06T18:00:58.021Z,98819.28
2023-04-06T18:03:24.832Z,98823.81
2023-04-06T18:05:51.749Z,98828.41
2023-04-06T18:08:18.614Z,98827.72
2023-04-06T18:10:46.106Z,98826.59
2023-04-06T18:13:12.974Z,98839.91
2023-04-06T18:15:39.980Z,98832.50
2023-04-06T18:18:07.824Z,98838.84
2023-04-06T18:20:41.135Z,98843.28
2023-04-06T18:23:08.018Z,98844.84
2023-04-06T18:25:41.359Z,98847.56
2023-04-06T18:28:09.525Z,98848.69
2023-04-06T18:30:36.667Z,98841.63
2023-04-06T18:33:04.204Z,98853.31
2023-04-06T18:35:31.359Z,98863.28
2023-04-06T18:37:58.215Z,98867.00
2023-04-06T18:40:39.765Z,98862.81
2023-04-06T18:43:08.329Z,98860.69
2023-04-06T18:45:38.922Z,98872.59
2023-04-06T18:48:06.934Z,98876.72
2023-04-06T18:50:34.282Z,98884.81
2023-04-06T18:53:02.026Z,98885.63
2023-04-06T18:55:32.522Z,98895.56
2023-04-06T18:57:59.294Z,98893.34
2023-04-06T19:00:26.522Z,98895.56
2023-04-06T19:02:53.798Z,98897.50
2023-04-06T19:05:22.281Z,98890.44
2023-04-06T19:07:52.361Z,98896.84
2023-04-06T19:10:20.188Z,98916.56
2023-04-06T19:12:47.943Z,98916.84
2023-04-06T19:15:15.347Z,98908.28
2023-04-06T19:17:42.854Z,98910.31
2023-04-06T19:20:10.601Z,98911.00
2023-04-06T19:22:38.278Z,98913.47
2023-04-06T19:25:07.678Z,98904.56
2023-04-06T19:27:34.890Z,98910.94
2023-04-06T19:30:02.170Z,98915.63
2023-04-06T19:32:30.203Z,98911.91
2023-04-06T19:34:59.443Z,98909.59
2023-04-06T19:37:26.428Z,98914.53
2023-04-06T19:39:53.244Z,98913.81
2023-04-06T19:42:21.650Z,98910.38
2023-04-06T19:44:48.922Z,98909.72
2023-04-06T19:47:16.066Z,98912.00
2023-04-06T19:49:42.908Z,98912.66
2023-04-06T19:52:10.717Z,98912.38
2023-04-06T19:54:39.966Z,98912.97
2023-04-06T19:57:06.904Z,98915.63
2023-04-06T19:59:37.017Z,98912.88
2023-04-06T20:02:04.509Z,98911.38
2023-04-06T20:04:31.574Z,98909.31
2023-04-06T20:06:58.506Z,98906.16
2023-04-06T20:09:25.717Z,98909.66
2023-04-06T20:11:54.271Z,98913.19
2023-04-06T20:14:22.995Z,98912.88
2023-04-06T20:16:50.703Z,98913.78
2023-04-06T20:19:18.007Z,98910.03
2023-04-06T20:21:45.310Z,98904.63
2023-04-06T20:24:12.494Z,98903.00
2023-04-06T20:26:39.580Z,98903.53
2023-04-06T20:29:06.623Z,98905.25
2023-04-06T20:31:33.694Z,98906.69
2023-04-06T20:34:00.682Z,98903.94
2023-04-06T20:36:28.021Z,98905.38
2023-04-06T20:38:54.894Z,98907.59
2023-04-06T20:41:22.085Z,98913.19
2023-04-06T20:43:49.028Z,98907.34
2023-04-06T20:46:18.197Z,98898.16
2023-04-06T20:48:45.338Z,98903.59
2023-04-06T20:51:25.489Z,98896.16
2023-04-06T20:53:52.727Z,98898.91
2023-04-06T20:56:21.877Z,98897.81
2023-04-06T20:58:49.728Z,98884.69
2023-04-06T21:01:18.029Z,98888.19
2023-04-06T21:03:45.779Z,98889.09
2023-04-06T21:06:16.031Z,98888.38
2023-04-06T21:08:42.987Z,98877.56
2023-04-06T21:11:10.600Z,98880.03
2023-04-06T21:13:37.545Z,98877.06
2023-04-06T21:16:05.480Z,98873.00
2023-04-06T21:18:32.730Z,98874.09
2023-04-06T21:20:59.992Z,98869.50
2023-04-06T21:23:27.288Z,98863.25
2023-04-06T21:25:57.048Z,98860.28
2023-04-06T21:28:25.766Z,98852.72
2023-04-06T21:30:54.284Z,98859.75
2023-04-06T21:33:21.451Z,98858.19
2023-04-06T21:35:48.665Z,98852.50
2023-04-06T21:38:15.535Z,98850.19
2023-04-06T21:40:42.372Z,98853.41
2023-04-06T21:43:09.257Z,98852.06
2023-04-06T21:45:36.171Z,98849.38
2023-04-06T21:48:03.131Z,98842.34
2023-04-06T21:50:30.049Z,98839.47
2023-04-06T21:52:56.850Z,98842.53
2023-04-06T21:55:23.597Z,98843.09
2023-04-06T21:57:50.462Z,98839.84
2023-04-06T22:00:18.627Z,98846.63
2023-04-06T22:02:45.975Z,98841.81
2023-04-06T22:05:13.279Z,98836.38
2023-04-06T22:07:40.426Z,98834.69
2023-04-06T22:10:08.206Z,98836.88
2023-04-06T22:12:35.271Z,98837.13
2023-04-06T22:15:02.455Z,98841.75
2023-04-06T22:17:30.942Z,98841.53
2023-04-06T22:19:58.024Z,98836.69
2023-04-06T22:22:25.929Z,98838.31
2023-04-06T22:24:53.117Z,98835.44
2023-04-06T22:27:20.028Z,98824.44
2023-04-06T22:29:46.747Z,98824.97
2023-04-06T22:32:13.712Z,98826.84
2023-04-06T22:34:40.587Z,98814.16
2023-04-06T22:37:07.466Z,98821.94
2023-04-06T22:39:34.338Z,98810.63
2023-04-06T22:42:01.576Z,98815.25
2023-04-06T22:44:28.435Z,98806.34
2023-04-06T22:46:55.366Z,98802.03
2023-04-06T22:49:22.174Z,98798.53
2023-04-06T22:51:49.015Z,98800.97
2023-04-06T22:54:16.302Z,98796.63
2023-04-06T22:56:43.183Z,98786.34
2023-04-06T22:59:10.043Z,98787.91
2023-04-06T23:01:38.061Z,98789.50
2023-04-06T23:04:05.333Z,98788.91
2023-04-06T23:06:32.246Z,98781.59
2023-04-06T23:08:58.990Z,98784.00
2023-04-06T23:11:25.921Z,98787.81
2023-04-06T23:13:52.692Z,98772.22
2023-04-06T23:16:19.535Z,98764.16
2023-04-06T23:18:46.550Z,98761.50
2023-04-06T23:21:13.451Z,98766.63
2023-04-06T23:23:40.445Z,98756.56
2023-04-06T23:26:07.367Z,98757.59
2023-04-06T23:28:34.100Z,98765.16
2023-04-06T23:31:01.065Z,98758.13
2023-04-06T23:33:28.954Z,98756.53
2023-04-06T23:35:56.228Z,98757.13
2023-04-06T23:38:23.150Z,98751.22
2023-04-06T23:40:50.407Z,98745.25
2023-04-06T23:43:17.282Z,98747.69
2023-04-06T23:45:44.255Z,98742.00
2023-04-06T23:48:11.282Z,98741.91
2023-04-06T23:50:38.359Z,98741.13
2023-04-06T23:53:05.562Z,98745.69
2023-04-06T23:55:32.601Z,98741.09
2023-04-06T23:57:59.730Z,98737.78
